createdAt,value
2023-04-19T00:01:05.171Z,3.50
2023-04-19T00:03:33.350Z,3.30
2023-04-19T00:06:02.578Z,3.10
2023-04-19T00:08:31.120Z,3.30
2023-04-19T00:10:59.122Z,3.80
2023-04-19T00:13:27.223Z,3.70
2023-04-19T00:15:55.400Z,3.00
2023-04-19T00:18:23.599Z,3.80
2023-04-19T00:20:52.062Z,3.50
2023-04-19T00:23:21.366Z,3.50
2023-04-19T00:25:49.561Z,3.60
2023-04-19T00:28:17.785Z,3.70
2023-04-19T00:30:45.921Z,3.50
2023-04-19T00:33:14.004Z,3.90
2023-04-19T00:35:42.425Z,3.40
2023-04-19T00:38:11.058Z,3.40
2023-04-19T00:40:39.374Z,3.40
2023-04-19T00:43:07.761Z,3.10
2023-04-19T00:45:37.024Z,3.50
2023-04-19T00:48:05.324Z,3.60
2023-04-19T00:50:36.140Z,3.60
2023-04-19T00:53:04.208Z,4.00
2023-04-19T00:55:32.796Z,3.90
2023-04-19T00:58:00.788Z,3.60
2023-04-19T01:00:28.852Z,3.50
2023-04-19T01:02:57.034Z,3.90
2023-04-19T01:05:25.295Z,3.60
2023-04-19T01:07:53.281Z,3.30
2023-04-19T01:10:21.215Z,4.00
2023-04-19T01:12:51.669Z,3.50
2023-04-19T01:15:19.760Z,3.60
2023-04-19T01:17:51.343Z,3.80
2023-04-19T01:20:20.338Z,3.70
2023-04-19T01:22:48.300Z,3.60
2023-04-19T01:25:16.914Z,3.50
2023-04-19T01:27:44.918Z,3.90
2023-04-19T01:30:13.174Z,3.50
2023-04-19T01:32:41.687Z,3.80
2023-04-19T01:35:11.525Z,4.60
2023-04-19T01:37:40.250Z,3.90
2023-04-19T01:40:11.915Z,3.80
2023-04-19T01:42:39.940Z,4.00
2023-04-19T01:45:08.468Z,4.00
2023-04-19T01:47:36.542Z,4.00
2023-04-19T01:50:04.941Z,7.70
2023-04-19T01:52:33.340Z,7.40
2023-04-19T01:55:01.542Z,9.00
2023-04-19T01:58:35.757Z,8.50
2023-04-19T02:01:03.898Z,9.90
2023-04-19T02:03:33.766Z,8.20
2023-04-19T02:06:02.194Z,10.70
2023-04-19T02:08:30.498Z,8.00
2023-04-19T02:10:58.827Z,6.10
2023-04-19T02:13:26.787Z,6.90
2023-04-19T02:15:54.886Z,5.80
2023-04-19T02:18:24.259Z,5.70
2023-04-19T02:20:52.188Z,5.50
2023-04-19T02:23:22.006Z,4.50
2023-04-19T02:25:50.079Z,4.90
2023-04-19T02:28:18.542Z,5.30
2023-04-19T02:30:46.834Z,4.90
2023-04-19T02:33:15.147Z,4.40
2023-04-19T02:35:43.091Z,4.60
2023-04-19T02:38:11.860Z,4.40
2023-04-19T02:40:40.077Z,4.30
2023-04-19T02:43:08.108Z,4.30
2023-04-19T02:45:37.330Z,5.40
2023-04-19T02:48:05.895Z,5.80
2023-04-19T02:50:34.007Z,7.80
2023-04-19T02:53:01.991Z,9.30
2023-04-19T02:55:30.249Z,9.00
2023-04-19T02:58:11.437Z,11.90
2023-04-19T03:00:44.278Z,11.20
2023-04-19T03:03:15.842Z,11.00
2023-04-19T03:05:43.983Z,11.20
2023-04-19T03:08:12.111Z,8.80
2023-04-19T03:11:00.124Z,8.30
2023-04-19T03:13:28.930Z,8.00
2023-04-19T03:15:57.090Z,7.70
2023-04-19T03:18:25.018Z,7.20
2023-04-19T03:20:54.192Z,7.20
2023-04-19T03:23:22.445Z,6.60
2023-04-19T03:25:51.295Z,6.50
2023-04-19T03:28:51.829Z,6.10
2023-04-19T03:31:20.078Z,6.00
2023-04-19T03:33:50.778Z,7.00
2023-04-19T03:36:19.405Z,7.10
2023-04-19T03:38:47.615Z,6.50
2023-04-19T03:41:24.486Z,7.00
2023-04-19T03:44:10.500Z,7.40
2023-04-19T03:46:38.984Z,5.90
2023-04-19T03:49:07.154Z,6.30
2023-04-19T03:51:36.046Z,8.30
2023-04-19T03:54:04.193Z,6.10
2023-04-19T03:56:32.522Z,7.80
2023-04-19T03:59:00.564Z,7.90
2023-04-19T04:01:29.371Z,7.70
2023-04-19T04:03:57.732Z,7.00
2023-04-19T04:06:28.027Z,7.20
2023-04-19T04:08:56.681Z,7.20
2023-04-19T04:11:26.324Z,6.80
2023-04-19T04:13:56.198Z,6.50
2023-04-19T04:16:27.974Z,7.10
2023-04-19T04:18:56.274Z,5.40
2023-04-19T04:21:27.479Z,6.20
2023-04-19T04:23:57.489Z,5.50
2023-04-19T04:26:34.107Z,5.20
2023-04-19T04:29:23.711Z,5.50
2023-04-19T04:31:53.019Z,6.00
2023-04-19T04:34:24.859Z,5.10
2023-04-19T04:36:58.865Z,5.10
2023-04-19T04:39:27.052Z,4.90
2023-04-19T04:41:58.024Z,5.50
2023-04-19T04:44:26.249Z,5.50
2023-04-19T04:46:54.644Z,5.40
2023-04-19T04:49:26.559Z,5.60
2023-04-19T04:51:54.840Z,5.80
2023-04-19T04:54:22.908Z,5.70
2023-04-19T04:56:51.324Z,5.50
2023-04-19T04:59:19.543Z,5.10
2023-04-19T05:01:49.101Z,4.90
2023-04-19T05:04:17.720Z,4.80
2023-04-19T05:06:46.939Z,4.80
2023-04-19T05:09:20.396Z,5.30
2023-04-19T05:11:48.326Z,4.60
2023-04-19T05:14:16.985Z,5.20
2023-04-19T05:16:45.583Z,4.70
2023-04-19T05:19:13.793Z,4.50
2023-04-19T05:21:46.411Z,4.90
2023-04-19T05:24:15.861Z,4.20
2023-04-19T05:26:44.463Z,5.10
2023-04-19T05:29:13.035Z,4.80
2023-04-19T05:31:53.122Z,4.90
2023-04-19T05:34:44.121Z,5.00
2023-04-19T05:37:14.032Z,4.40
2023-04-19T05:39:44.612Z,4.00
2023-04-19T05:42:13.932Z,4.60
2023-04-19T05:44:42.013Z,4.60
2023-04-19T05:47:10.522Z,4.30
2023-04-19T05:50:04.024Z,5.00
2023-04-19T05:52:36.237Z,4.60
2023-04-19T05:55:06.172Z,5.00
2023-04-19T05:57:36.503Z,4.70
2023-04-19T06:00:05.630Z,4.50
2023-04-19T06:02:47.284Z,4.90
2023-04-19T06:05:15.923Z,4.60
2023-04-19T06:07:54.502Z,4.40
2023-04-19T06:13:17.498Z,4.40
2023-04-19T06:15:46.444Z,4.40
2023-04-19T06:18:19.108Z,5.30
2023-04-19T06:20:47.820Z,5.00
2023-04-19T06:23:17.850Z,4.70
2023-04-19T06:25:49.229Z,4.50
2023-04-19T06:28:17.564Z,4.00
2023-04-19T06:30:45.962Z,4.50
2023-04-19T06:33:14.076Z,4.00
2023-04-19T06:35:42.700Z,4.20
2023-04-19T06:38:10.882Z,3.80
2023-04-19T06:40:39.799Z,4.30
2023-04-19T06:43:07.986Z,4.20
2023-04-19T06:45:36.521Z,3.90
2023-04-19T06:48:05.704Z,3.90
2023-04-19T06:50:34.007Z,4.60
2023-04-19T06:53:04.602Z,4.50
2023-04-19T06:55:33.521Z,3.90
2023-04-19T06:58:01.890Z,3.80
2023-04-19T07:00:31.335Z,4.90
2023-04-19T07:03:00.717Z,4.40
2023-04-19T07:05:30.555Z,4.40
2023-04-19T07:07:58.706Z,4.10
2023-04-19T07:10:27.098Z,4.40
2023-04-19T07:12:55.561Z,5.20
2023-04-19T07:15:24.291Z,4.50
2023-04-19T07:17:52.715Z,5.00
2023-04-19T07:20:21.966Z,4.20
2023-04-19T07:22:50.174Z,4.60
2023-04-19T07:25:18.547Z,4.20
2023-04-19T07:27:47.307Z,4.40
2023-04-19T07:30:17.287Z,4.80
2023-04-19T07:32:46.591Z,4.10
2023-04-19T07:35:15.425Z,5.10
2023-04-19T07:37:43.958Z,4.20
2023-04-19T07:40:13.348Z,4.90
2023-04-19T07:42:43.399Z,4.20
2023-04-19T07:45:11.917Z,5.20
2023-04-19T07:47:40.125Z,4.70
2023-04-19T07:50:09.389Z,4.00
2023-04-19T07:52:37.973Z,4.00
2023-04-19T07:55:07.657Z,4.10
2023-04-19T07:57:36.153Z,4.10
2023-04-19T08:00:05.079Z,4.20
2023-04-19T08:02:45.359Z,3.40
2023-04-19T08:05:17.786Z,4.30
2023-04-19T08:07:46.652Z,4.00
2023-04-19T08:10:15.166Z,3.60
2023-04-19T08:12:50.699Z,4.30
2023-04-19T08:18:05.691Z,4.00
2023-04-19T08:20:34.095Z,4.30
2023-04-19T08:23:13.904Z,3.60
2023-04-19T08:25:42.634Z,3.50
2023-04-19T08:28:11.765Z,3.60
2023-04-19T08:30:40.796Z,4.70
2023-04-19T08:33:08.901Z,3.90
2023-04-19T08:35:41.047Z,4.40
2023-04-19T08:38:09.840Z,4.30
2023-04-19T08:40:42.033Z,4.00
2023-04-19T08:43:10.266Z,3.20
2023-04-19T08:45:38.317Z,3.70
2023-04-19T08:48:06.614Z,4.80
2023-04-19T08:50:45.502Z,3.10
2023-04-19T08:53:24.935Z,4.60
2023-04-19T08:56:12.937Z,3.70
2023-04-19T09:01:30.435Z,3.80
2023-04-19T09:04:17.364Z,4.10
2023-04-19T09:06:51.567Z,4.10
2023-04-19T09:09:36.664Z,4.40
2023-04-19T09:12:17.807Z,3.90
2023-04-19T09:17:18.573Z,3.70
2023-04-19T09:19:48.102Z,4.10
2023-04-19T09:22:16.791Z,3.90
2023-04-19T09:27:16.892Z,4.70
2023-04-19T09:29:53.358Z,4.20
2023-04-19T09:32:22.325Z,4.70
2023-04-19T09:35:00.094Z,3.50
2023-04-19T09:39:59.386Z,3.60
2023-04-19T09:48:09.346Z,4.00
2023-04-19T09:50:58.556Z,4.10
2023-04-19T09:53:29.907Z,5.50
2023-04-19T09:56:02.136Z,4.60
2023-04-19T09:58:46.335Z,4.30
2023-04-19T10:01:19.555Z,3.70
2023-04-19T10:03:49.937Z,3.80
2023-04-19T10:08:50.607Z,3.90
2023-04-19T10:11:22.773Z,4.10
2023-04-19T10:13:53.276Z,4.20
2023-04-19T10:16:21.776Z,4.80
2023-04-19T10:18:50.660Z,4.60
2023-04-19T10:21:19.340Z,4.40
2023-04-19T10:23:47.531Z,4.40
2023-04-19T10:26:16.213Z,6.90
2023-04-19T10:28:44.390Z,5.10
2023-04-19T10:31:16.271Z,5.50
2023-04-19T10:33:44.541Z,4.20
2023-04-19T10:36:14.921Z,4.60
2023-04-19T10:38:45.910Z,4.90
2023-04-19T10:41:18.821Z,4.60
2023-04-19T10:43:48.472Z,5.40
2023-04-19T10:46:23.416Z,6.20
2023-04-19T10:48:55.274Z,4.20
2023-04-19T10:51:27.939Z,5.10
2023-04-19T10:53:57.768Z,6.10
2023-04-19T10:56:35.096Z,4.80
2023-04-19T10:59:03.084Z,5.70
2023-04-19T11:01:38.225Z,4.70
2023-04-19T11:04:07.753Z,4.90
2023-04-19T11:06:37.656Z,5.80
2023-04-19T11:09:07.308Z,5.40
2023-04-19T11:11:36.431Z,4.40
2023-04-19T11:14:05.709Z,4.20
2023-04-19T11:16:45.106Z,4.30
2023-04-19T11:19:18.151Z,4.80
2023-04-19T11:21:46.865Z,4.90
2023-04-19T11:24:19.191Z,5.10
2023-04-19T11:26:48.190Z,4.80
2023-04-19T11:29:17.159Z,5.30
2023-04-19T11:31:46.681Z,5.70
2023-04-19T11:34:15.347Z,4.80
2023-04-19T11:36:52.955Z,6.10
2023-04-19T11:39:21.919Z,5.60
2023-04-19T11:41:50.044Z,5.70
2023-04-19T11:44:20.585Z,6.50
2023-04-19T11:46:59.844Z,7.30
2023-04-19T11:49:29.278Z,5.60
2023-04-19T11:52:03.107Z,6.10
2023-04-19T11:54:33.886Z,6.10
2023-04-19T11:57:06.152Z,5.60
2023-04-19T11:59:36.226Z,5.40
2023-04-19T12:02:11.733Z,5.70
2023-04-19T12:04:41.314Z,4.60
2023-04-19T12:07:10.380Z,5.40
2023-04-19T12:09:39.417Z,6.10
2023-04-19T12:12:07.664Z,6.10
2023-04-19T12:14:35.910Z,6.00
2023-04-19T12:17:06.104Z,5.80
2023-04-19T12:19:38.709Z,5.20
2023-04-19T12:22:14.543Z,6.30
2023-04-19T12:24:42.916Z,6.00
2023-04-19T12:27:11.490Z,5.10
2023-04-19T12:29:39.696Z,6.00
2023-04-19T12:32:07.923Z,5.30
2023-04-19T12:34:36.367Z,5.40
2023-04-19T12:37:04.651Z,5.30
2023-04-19T12:39:32.720Z,5.30
2023-04-19T12:42:01.458Z,5.70
2023-04-19T12:44:29.607Z,5.60
2023-04-19T12:46:57.898Z,5.50
2023-04-19T12:49:26.449Z,6.40
2023-04-19T12:51:57.034Z,6.70
2023-04-19T12:54:25.543Z,7.60
2023-04-19T12:56:54.257Z,7.90
2023-04-19T12:59:22.419Z,7.50
2023-04-19T13:01:50.644Z,6.70
2023-04-19T13:04:19.176Z,7.30
2023-04-19T13:06:48.196Z,7.60
2023-04-19T13:09:16.238Z,7.40
2023-04-19T13:11:44.284Z,8.70
2023-04-19T13:14:12.377Z,6.40
2023-04-19T13:16:40.427Z,7.20
2023-04-19T13:19:08.499Z,7.30
2023-04-19T13:21:37.229Z,6.80
2023-04-19T13:24:05.679Z,7.00
2023-04-19T13:26:34.597Z,7.00
2023-04-19T13:29:03.302Z,8.30
2023-04-19T13:31:32.418Z,7.30
2023-04-19T13:34:01.486Z,7.70
2023-04-19T13:36:29.861Z,7.30
2023-04-19T13:38:58.250Z,7.70
2023-04-19T13:41:26.278Z,7.60
2023-04-19T13:43:54.348Z,7.90
2023-04-19T13:46:22.776Z,7.80
2023-04-19T13:48:50.928Z,8.20
2023-04-19T13:51:18.970Z,7.00
2023-04-19T13:53:47.035Z,6.70
2023-04-19T13:56:15.157Z,6.70
2023-04-19T13:58:43.250Z,8.50
2023-04-19T14:01:11.413Z,7.30
2023-04-19T14:03:39.814Z,8.00
2023-04-19T14:06:08.395Z,6.10
2023-04-19T14:08:37.237Z,7.60
2023-04-19T14:11:05.315Z,7.00
2023-04-19T14:16:25.765Z,7.80
2023-04-19T14:18:53.944Z,6.90
2023-04-19T14:21:22.146Z,7.90
2023-04-19T14:23:50.443Z,6.20
2023-04-19T14:26:18.541Z,7.00
2023-04-19T14:28:47.126Z,8.00
2023-04-19T14:31:15.270Z,8.50
2023-04-19T14:33:43.529Z,7.00
2023-04-19T14:36:11.708Z,7.00
2023-04-19T14:38:40.012Z,8.10
2023-04-19T14:41:08.664Z,7.20
2023-04-19T14:43:36.890Z,6.50
2023-04-19T14:46:05.183Z,6.10
2023-04-19T14:48:33.586Z,6.30
2023-04-19T14:51:01.814Z,6.90
2023-04-19T14:53:30.602Z,6.50
2023-04-19T14:55:59.990Z,6.00
2023-04-19T14:58:28.437Z,6.00
2023-04-19T15:00:56.550Z,5.80
2023-04-19T15:03:25.467Z,6.30
2023-04-19T15:05:53.952Z,6.20
2023-04-19T15:08:30.399Z,5.60
2023-04-19T15:10:59.590Z,5.60
2023-04-19T15:13:29.850Z,5.70
2023-04-19T15:15:58.117Z,4.70
2023-04-19T15:18:26.317Z,5.10
2023-04-19T15:20:54.577Z,4.60
2023-04-19T15:23:23.838Z,4.80
2023-04-19T15:25:52.508Z,4.70
2023-04-19T15:28:20.748Z,4.90
2023-04-19T15:30:59.634Z,4.80
2023-04-19T15:33:28.350Z,4.40
2023-04-19T15:35:56.637Z,4.20
2023-04-19T15:38:27.652Z,5.20
2023-04-19T15:40:56.352Z,4.30
2023-04-19T15:43:24.927Z,5.00
2023-04-19T15:45:53.077Z,4.90
2023-04-19T15:48:21.617Z,5.00
2023-04-19T15:50:49.797Z,5.00
2023-04-19T15:53:18.039Z,5.80
2023-04-19T15:55:49.500Z,4.50
2023-04-19T15:58:17.984Z,6.00
2023-04-19T16:00:46.172Z,5.10
2023-04-19T16:03:14.524Z,5.40
2023-04-19T16:05:43.006Z,5.60
2023-04-19T16:08:17.499Z,5.70
2023-04-19T16:10:46.547Z,4.70
2023-04-19T16:13:15.405Z,4.70
2023-04-19T16:15:44.111Z,6.20
2023-04-19T16:18:14.083Z,5.60
2023-04-19T16:20:42.497Z,5.60
2023-04-19T16:23:10.810Z,5.00
2023-04-19T16:25:41.435Z,5.70
2023-04-19T16:28:09.872Z,5.20
2023-04-19T16:30:38.348Z,5.10
2023-04-19T16:33:06.649Z,6.20
2023-04-19T16:35:35.182Z,5.00
2023-04-19T16:38:04.574Z,4.90
2023-04-19T16:40:32.660Z,5.50
2023-04-19T16:43:01.044Z,5.00
2023-04-19T16:45:29.573Z,5.90
2023-04-19T16:47:57.838Z,6.60
2023-04-19T16:50:26.009Z,5.80
2023-04-19T16:52:54.036Z,5.90
2023-04-19T16:55:22.333Z,5.00
2023-04-19T16:57:51.296Z,5.90
2023-04-19T17:00:20.028Z,5.30
2023-04-19T17:02:48.582Z,5.80
2023-04-19T17:05:16.837Z,5.10
2023-04-19T17:07:45.614Z,5.20
2023-04-19T17:10:13.712Z,5.80
2023-04-19T17:12:42.389Z,5.80
2023-04-19T17:15:10.680Z,6.40
2023-04-19T17:17:39.089Z,5.80
2023-04-19T17:20:08.240Z,5.90
2023-04-19T17:22:36.411Z,5.30
2023-04-19T17:25:04.810Z,6.00
2023-04-19T17:27:33.428Z,5.00
2023-04-19T17:30:01.683Z,4.30
2023-04-19T17:32:30.129Z,5.40
2023-04-19T17:34:58.240Z,6.70
2023-04-19T17:37:26.378Z,5.50
2023-04-19T17:39:54.575Z,4.90
2023-04-19T17:42:23.290Z,5.70
2023-04-19T17:44:51.406Z,4.70
2023-04-19T17:47:19.849Z,4.80
2023-04-19T17:49:47.999Z,4.60
2023-04-19T17:52:16.086Z,3.80
2023-04-19T17:54:44.227Z,4.40
2023-04-19T17:57:14.568Z,3.20
2023-04-19T17:59:42.842Z,4.10
2023-04-19T18:02:11.666Z,3.30
2023-04-19T18:04:44.639Z,3.60
2023-04-19T18:07:13.026Z,3.50
2023-04-19T18:09:41.292Z,3.60
2023-04-19T18:12:09.929Z,3.60
2023-04-19T18:14:38.042Z,3.90
2023-04-19T18:17:06.555Z,3.30
2023-04-19T18:19:34.996Z,3.10
2023-04-19T18:22:03.874Z,3.30
2023-04-19T18:24:32.249Z,3.50
2023-04-19T18:27:00.494Z,3.90
2023-04-19T18:29:28.867Z,2.90
2023-04-19T18:31:56.955Z,3.30
2023-04-19T18:34:25.353Z,3.90
2023-04-19T18:36:58.870Z,3.80
2023-04-19T18:41:57.593Z,4.30
2023-04-19T18:44:49.611Z,3.90
2023-04-19T18:47:14.807Z,3.30
2023-04-19T18:49:49.288Z,3.30
2023-04-19T18:52:27.857Z,3.80
2023-04-19T18:54:58.464Z,3.50
2023-04-19T18:57:27.513Z,3.70
2023-04-19T18:59:56.489Z,4.10
2023-04-19T19:02:25.633Z,4.10
2023-04-19T19:04:58.536Z,3.70
2023-04-19T19:07:35.435Z,4.70
2023-04-19T19:10:18.273Z,4.30
2023-04-19T19:12:49.687Z,4.50
2023-04-19T19:15:18.563Z,4.30
2023-04-19T19:17:49.890Z,4.70
2023-04-19T19:20:19.715Z,4.10
2023-04-19T19:22:48.353Z,4.30
2023-04-19T19:25:17.199Z,5.30
2023-04-19T19:28:05.510Z,6.60
2023-04-19T19:30:35.029Z,3.80
2023-04-19T19:33:05.039Z,4.10
2023-04-19T19:35:34.017Z,4.50
2023-04-19T19:38:02.460Z,4.60
2023-04-19T19:40:32.656Z,4.40
2023-04-19T19:43:01.711Z,4.80
2023-04-19T19:45:30.996Z,4.20
2023-04-19T19:47:59.986Z,4.30
2023-04-19T19:53:01.704Z,4.40
2023-04-19T19:55:30.463Z,4.70
2023-04-19T20:00:46.129Z,4.30
2023-04-19T20:03:24.868Z,4.30
2023-04-19T20:06:05.486Z,4.20
2023-04-19T20:08:48.340Z,4.80
2023-04-19T20:11:17.688Z,5.00
2023-04-19T20:13:46.024Z,5.40
2023-04-19T20:16:14.797Z,4.90
2023-04-19T20:18:44.185Z,5.40
2023-04-19T20:21:12.709Z,5.10
2023-04-19T20:23:40.866Z,4.90
2023-04-19T20:26:09.514Z,5.20
2023-04-19T20:28:38.368Z,5.30
2023-04-19T20:31:06.469Z,5.50
2023-04-19T20:33:35.055Z,4.80
2023-04-19T20:36:03.861Z,5.30
2023-04-19T20:38:32.085Z,4.90
2023-04-19T20:41:00.372Z,5.70
2023-04-19T20:43:28.567Z,5.60
2023-04-19T20:45:56.840Z,5.30
2023-04-19T20:48:25.481Z,6.20
2023-04-19T20:50:53.695Z,4.40
2023-04-19T20:53:21.965Z,5.10
2023-04-19T20:55:50.147Z,4.60
2023-04-19T20:58:18.287Z,6.10
2023-04-19T21:00:46.915Z,5.60
2023-04-19T21:03:16.464Z,5.20
2023-04-19T21:05:44.893Z,5.30
2023-04-19T21:08:15.187Z,5.90
2023-04-19T21:10:43.241Z,6.30
2023-04-19T21:13:11.442Z,5.40
2023-04-19T21:15:39.658Z,6.00
2023-04-19T21:18:08.057Z,5.60
2023-04-19T21:20:36.454Z,5.80
2023-04-19T21:23:04.554Z,5.40
2023-04-19T21:25:32.964Z,5.10
2023-04-19T21:28:01.135Z,5.50
2023-04-19T21:30:29.799Z,6.10
2023-04-19T21:32:58.577Z,5.30
2023-04-19T21:35:26.825Z,5.80
2023-04-19T21:37:54.824Z,6.00
2023-04-19T21:40:22.973Z,5.10
2023-04-19T21:42:51.267Z,5.80
2023-04-19T21:45:19.335Z,6.20
2023-04-19T21:47:47.522Z,5.50
2023-04-19T21:50:15.870Z,5.70
2023-04-19T21:52:43.960Z,5.70
2023-04-19T21:55:12.069Z,4.50
2023-04-19T21:57:40.412Z,5.80
2023-04-19T22:00:11.762Z,5.30
2023-04-19T22:02:41.692Z,4.70
2023-04-19T22:05:09.991Z,4.90
2023-04-19T22:07:40.183Z,5.20
2023-04-19T22:10:09.130Z,4.70
2023-04-19T22:12:51.295Z,5.70
2023-04-19T22:15:26.599Z,6.10
2023-04-19T22:17:54.777Z,5.00
2023-04-19T22:20:24.266Z,5.20
2023-04-19T22:22:52.652Z,5.90
2023-04-19T22:25:20.730Z,5.60
2023-04-19T22:27:49.004Z,5.70
2023-04-19T22:30:17.121Z,5.30
2023-04-19T22:32:45.772Z,4.40
2023-04-19T22:35:14.073Z,5.00
2023-04-19T22:37:42.576Z,5.80
2023-04-19T22:40:11.563Z,5.20
2023-04-19T22:42:39.933Z,5.50
2023-04-19T22:45:08.719Z,4.40
2023-04-19T22:47:37.675Z,4.40
2023-04-19T22:50:07.542Z,4.90
2023-04-19T22:52:35.862Z,5.00
2023-04-19T22:55:04.130Z,4.70
2023-04-19T22:57:32.699Z,5.40
2023-04-19T23:00:01.026Z,4.60
2023-04-19T23:02:29.536Z,5.00
2023-04-19T23:04:58.918Z,4.00
2023-04-19T23:07:28.986Z,5.00
2023-04-19T23:09:57.251Z,5.60
2023-04-19T23:12:25.670Z,4.20
2023-04-19T23:14:53.934Z,5.20
2023-04-19T23:17:22.028Z,5.00
2023-04-19T23:19:50.237Z,4.90
2023-04-19T23:22:18.179Z,4.30
2023-04-19T23:24:46.229Z,5.30
2023-04-19T23:27:14.276Z,4.50
2023-04-19T23:29:43.260Z,5.00
2023-04-19T23:32:11.621Z,5.00
2023-04-19T23:34:40.301Z,4.60
2023-04-19T23:37:08.980Z,4.60
2023-04-19T23:39:37.514Z,4.60
2023-04-19T23:42:05.772Z,5.00
2023-04-19T23:44:34.071Z,4.90
2023-04-19T23:47:05.320Z,4.80
2023-04-19T23:49:33.876Z,4.70
2023-04-19T23:52:05.516Z,5.00
2023-04-19T23:54:33.826Z,4.70
2023-04-19T23:57:02.604Z,4.70
2023-04-19T23:59:33.189Z,5.70
